Time;durP1;ratioP1;P1;durP2;ratioP2;P2;SDS_P1;SDS_P2;PMS_P1;PMS_P2;Temp;Humidity;BMP_temperature;BMP_pressure;BME280_temperature;BME280_humidity;BME280_pressure;Samples;Min_cycle;Max_cycle;Signal;HPM_P1;HPM_P2
2022/12/17 13:07:28;;;;;;;17.10;11.82;;;0.00;99.90;;;;;;5005791;28;20163;-79
2022/12/17 13:09:57;;;;;;;20.77;14.85;;;0.00;99.90;;;;;;4980032;28;20194;-79
2022/12/17 13:12:42;;;;;;;16.02;11.70;;;0.00;99.90;;;;;;4992097;28;20177;-79
2022/12/17 13:15:19;;;;;;;21.60;13.70;;;0.10;99.90;;;;;;4976112;28;20535;-80
2022/12/17 13:18:14;;;;;;;22.73;14.20;;;0.10;99.90;;;;;;4975541;28;20205;-80
2022/12/17 13:20:40;;;;;;;23.75;13.35;;;0.10;99.90;;;;;;4991167;28;20198;-80
2022/12/17 13:23:16;;;;;;;20.13;13.77;;;0.10;99.90;;;;;;4975070;28;20897;-80
2022/12/17 13:25:43;;;;;;;26.33;16.25;;;0.10;99.90;;;;;;4993553;28;20209;-80
2022/12/17 13:28:29;;;;;;;21.50;13.70;;;0.10;99.90;;;;;;4979060;28;20174;-79
2022/12/17 13:31:05;;;;;;;17.13;10.60;;;0.20;99.90;;;;;;5012609;28;20256;-79
2022/12/17 13:34:06;;;;;;;18.58;12.13;;;0.20;99.90;;;;;;4977294;28;20189;-79
2022/12/17 13:36:45;;;;;;;20.17;12.55;;;0.30;99.90;;;;;;4934752;29;20638;-80
2022/12/17 13:39:39;;;;;;;22.08;13.38;;;0.30;99.90;;;;;;4976958;28;20282;-78
2022/12/17 13:42:14;;;;;;;20.55;13.45;;;0.30;99.90;;;;;;4994767;28;20182;-79
2022/12/17 13:44:45;;;;;;;19.10;12.95;;;0.40;99.90;;;;;;5012113;28;20212;-78
2022/12/17 13:47:26;;;;;;;14.80;10.60;;;0.40;99.90;;;;;;4996436;28;20232;-79
2022/12/17 13:49:55;;;;;;;20.65;13.10;;;0.40;99.90;;;;;;5013315;28;20201;-78
2022/12/17 13:52:24;;;;;;;18.80;12.57;;;0.40;99.90;;;;;;4996505;28;20178;-79
2022/12/17 13:54:50;;;;;;;18.13;12.57;;;0.40;99.90;;;;;;4996672;28;20197;-79
2022/12/17 13:57:17;;;;;;;20.93;13.37;;;0.40;99.90;;;;;;5013727;28;20634;-79
2022/12/17 13:59:57;;;;;;;20.17;13.00;;;0.40;99.90;;;;;;4979543;28;20180;-79
2022/12/17 14:02:37;;;;;;;20.80;13.80;;;0.40;99.90;;;;;;4996077;28;20290;-80
2022/12/17 14:05:06;;;;;;;16.92;10.23;;;0.30;99.90;;;;;;4993210;28;20222;-79
2022/12/17 14:07:36;;;;;;;22.20;14.35;;;0.40;99.90;;;;;;4987095;28;20255;-79
2022/12/17 14:10:04;;;;;;;20.45;14.00;;;0.40;99.90;;;;;;5012240;28;20546;-79
2022/12/17 14:12:33;;;;;;;26.13;14.45;;;0.40;99.90;;;;;;4995228;28;20668;-79
2022/12/17 14:15:07;;;;;;;17.45;12.70;;;0.40;99.90;;;;;;5013845;28;20198;-79
2022/12/17 14:17:47;;;;;;;24.20;14.50;;;0.40;99.90;;;;;;5000398;28;20179;-79
2022/12/17 14:20:19;;;;;;;24.88;16.40;;;0.30;99.90;;;;;;5004887;28;20203;-76
2022/12/17 14:22:51;;;;;;;21.05;12.13;;;0.30;99.90;;;;;;5004754;28;20269;-77
2022/12/17 14:25:28;;;;;;;17.45;12.57;;;0.40;99.90;;;;;;4976990;28;20230;-76
2022/12/17 14:28:19;;;;;;;20.48;13.52;;;0.40;99.90;;;;;;4999758;28;20174;-76
2022/12/17 14:30:46;;;;;;;24.38;15.25;;;0.40;99.90;;;;;;5001261;28;20254;-78
2022/12/17 14:33:30;;;;;;;19.15;11.75;;;0.40;99.90;;;;;;5001302;28;20170;-78
2022/12/17 14:35:58;;;;;;;17.27;11.10;;;0.40;99.90;;;;;;4979610;28;20174;-78
2022/12/17 14:38:24;;;;;;;26.42;16.52;;;0.50;99.90;;;;;;5012467;28;20162;-78
2022/12/17 14:40:51;;;;;;;15.05;10.27;;;0.50;99.90;;;;;;5012475;28;20201;-78
2022/12/17 14:43:27;;;;;;;22.83;14.18;;;0.50;99.90;;;;;;4995602;28;20261;-78
2022/12/17 14:49:00;;;;;;;23.00;14.35;;;0.40;99.90;;;;;;4996828;28;20185;-82
2022/12/17 14:51:39;;;;;;;19.23;12.88;;;0.40;99.90;;;;;;4978448;28;20240;-86
2022/12/17 14:54:13;;;;;;;18.77;12.38;;;0.40;99.90;;;;;;4995216;28;20526;-81
2022/12/17 14:56:40;;;;;;;17.67;11.75;;;0.40;99.90;;;;;;4979958;28;20590;-83
2022/12/17 14:59:31;;;;;;;18.23;12.02;;;0.40;99.90;;;;;;5015688;28;20174;-83
2022/12/17 15:02:02;;;;;;;16.42;12.25;;;0.40;99.90;;;;;;5009621;28;20309;-80
2022/12/17 15:04:31;;;;;;;24.77;14.23;;;0.40;99.90;;;;;;4997658;28;20202;-84
2022/12/17 15:06:57;;;;;;;14.32;11.18;;;0.40;99.90;;;;;;5001309;28;20237;-83
2022/12/17 15:09:23;;;;;;;14.43;10.38;;;0.40;99.90;;;;;;4994572;28;20166;-83
2022/12/17 15:12:08;;;;;;;17.33;11.13;;;0.40;99.90;;;;;;5001571;28;20260;-82
2022/12/17 15:14:55;;;;;;;12.30;9.48;;;0.40;99.90;;;;;;5003558;28;20182;-82
2022/12/17 15:17:41;;;;;;;16.63;11.43;;;0.40;99.90;;;;;;5012279;28;20183;-83
2022/12/17 15:20:27;;;;;;;17.33;11.05;;;0.40;99.90;;;;;;4993411;28;20217;-83
2022/12/17 15:23:19;;;;;;;20.02;12.35;;;0.40;99.90;;;;;;5007725;28;20182;-83
2022/12/17 15:26:05;;;;;;;16.15;10.90;;;0.40;99.90;;;;;;5004958;28;20194;-83
2022/12/17 15:28:51;;;;;;;18.75;12.73;;;0.30;99.90;;;;;;5001262;28;20650;-82
2022/12/17 15:31:38;;;;;;;17.42;11.15;;;0.30;99.90;;;;;;4988000;28;20248;-81
2022/12/17 15:34:26;;;;;;;14.35;10.70;;;0.30;99.90;;;;;;4993618;28;20185;-82
2022/12/17 15:37:15;;;;;;;18.00;11.82;;;0.20;99.90;;;;;;4992476;28;20190;-81
2022/12/17 15:40:02;;;;;;;15.57;10.88;;;0.20;99.90;;;;;;4992643;28;20637;-81
2022/12/17 15:45:52;;;;;;;19.02;12.35;;;0.10;99.90;;;;;;5012351;28;20678;-81
2022/12/17 15:48:39;;;;;;;19.10;12.52;;;0.10;99.90;;;;;;5007806;28;20554;-81
2022/12/17 15:51:24;;;;;;;16.70;11.70;;;0.10;99.90;;;;;;4992103;28;20205;-82
2022/12/17 15:54:10;;;;;;;19.73;13.68;;;0.00;99.90;;;;;;4986668;28;20399;-81
2022/12/17 15:56:57;;;;;;;23.92;14.07;;;0.00;99.90;;;;;;5007493;28;20346;-81
2022/12/17 15:59:43;;;;;;;24.02;14.20;;;0.00;99.90;;;;;;5003073;28;20182;-80
2022/12/17 16:02:29;;;;;;;17.75;12.52;;;-0.10;99.90;;;;;;4995462;28;20516;-80
2022/12/17 16:05:15;;;;;;;23.00;13.45;;;0.00;99.90;;;;;;4990853;28;20210;-81
2022/12/17 16:08:02;;;;;;;17.20;13.25;;;-0.10;99.90;;;;;;4991803;28;20193;-80
2022/12/17 16:10:48;;;;;;;18.60;14.18;;;-0.10;99.90;;;;;;5006293;28;20263;-80
2022/12/17 16:13:38;;;;;;;18.13;11.82;;;-0.10;99.90;;;;;;5008731;28;20178;-81
2022/12/17 16:16:24;;;;;;;17.35;12.57;;;-0.10;99.90;;;;;;5007766;28;20182;-80
2022/12/17 16:19:10;;;;;;;17.13;11.10;;;-0.20;99.90;;;;;;5007684;28;20178;-81
2022/12/17 16:21:56;;;;;;;25.27;16.00;;;-0.20;99.90;;;;;;4993577;28;20615;-81
2022/12/17 16:24:42;;;;;;;16.52;12.45;;;-0.20;99.90;;;;;;5008184;28;20801;-81
2022/12/17 16:27:28;;;;;;;16.88;11.65;;;-0.20;99.90;;;;;;5004428;28;20252;-81
2022/12/17 16:30:14;;;;;;;20.88;13.13;;;-0.30;99.90;;;;;;4997641;28;20205;-81
2022/12/17 16:33:00;;;;;;;15.07;11.13;;;-0.30;99.90;;;;;;4992760;28;20278;-80
2022/12/17 16:35:51;;;;;;;20.60;15.00;;;-0.30;99.90;;;;;;4985946;28;20189;-81
2022/12/17 16:38:46;;;;;;;18.63;12.50;;;-0.30;99.90;;;;;;5007316;28;20181;-81
2022/12/17 16:41:32;;;;;;;16.50;13.07;;;-0.40;99.90;;;;;;4990784;28;20701;-81
2022/12/17 16:44:19;;;;;;;17.35;12.80;;;-0.40;99.90;;;;;;4997710;28;20232;-81
2022/12/17 16:47:05;;;;;;;16.77;11.27;;;-0.40;99.90;;;;;;5004528;28;20174;-81
2022/12/17 16:49:51;;;;;;;16.65;11.20;;;-0.40;99.90;;;;;;5020649;28;20251;-79
2022/12/17 16:52:37;;;;;;;24.55;15.27;;;-0.40;99.90;;;;;;4997772;28;20226;-81
2022/12/17 16:55:23;;;;;;;17.42;12.63;;;-0.40;99.90;;;;;;5005755;28;20232;-80
2022/12/17 16:58:09;;;;;;;20.92;12.70;;;-0.40;99.90;;;;;;5011484;28;20188;-80
2022/12/17 17:00:55;;;;;;;19.13;11.82;;;-0.40;99.90;;;;;;5010403;28;20582;-79
2022/12/17 17:03:41;;;;;;;22.83;13.70;;;-0.40;99.90;;;;;;4999047;28;20281;-80
2022/12/17 17:06:28;;;;;;;23.52;15.50;;;-0.50;99.90;;;;;;4992303;28;20834;-79
2022/12/17 17:09:14;;;;;;;19.30;12.85;;;-0.50;99.90;;;;;;5010187;28;20550;-80
2022/12/17 17:12:01;;;;;;;15.70;11.55;;;-0.50;99.90;;;;;;5003464;28;20635;-80
2022/12/17 17:14:50;;;;;;;20.08;12.98;;;-0.50;99.90;;;;;;4996479;28;20183;-80
2022/12/17 17:17:36;;;;;;;21.40;14.20;;;-0.60;99.90;;;;;;5018711;28;20232;-79
2022/12/17 17:20:22;;;;;;;19.02;12.55;;;-0.60;99.90;;;;;;4994947;28;20225;-79
2022/12/17 17:23:08;;;;;;;19.33;13.02;;;-0.60;99.90;;;;;;5009943;28;20182;-79
2022/12/17 17:25:54;;;;;;;18.95;13.57;;;-0.60;99.90;;;;;;5009475;28;20217;-79
2022/12/17 17:28:40;;;;;;;20.65;12.20;;;-0.60;99.90;;;;;;5002749;28;20277;-81
2022/12/17 17:31:27;;;;;;;20.63;13.30;;;-0.70;99.90;;;;;;4994651;28;20217;-80
2022/12/17 17:34:14;;;;;;;17.35;12.30;;;-0.70;99.90;;;;;;5001932;28;20243;-81
2022/12/17 17:37:00;;;;;;;23.30;14.32;;;-0.70;99.90;;;;;;5008554;28;20244;-80
2022/12/17 17:39:47;;;;;;;22.73;14.57;;;-0.80;99.90;;;;;;4995698;28;20240;-80
2022/12/17 17:42:33;;;;;;;16.88;11.95;;;-0.80;99.90;;;;;;5010165;28;20179;-80
2022/12/17 17:45:19;;;;;;;17.42;12.07;;;-0.80;99.90;;;;;;5008966;28;21033;-80
2022/12/17 17:48:05;;;;;;;19.00;12.05;;;-0.80;99.90;;;;;;5009175;28;20185;-79
2022/12/17 17:51:06;;;;;;;15.80;11.00;;;-0.80;99.90;;;;;;4989039;28;20917;-79
2022/12/17 17:53:53;;;;;;;17.63;12.85;;;-0.80;99.90;;;;;;4994191;28;20181;-80
2022/12/17 17:56:41;;;;;;;25.08;16.00;;;-0.90;99.90;;;;;;5009464;28;20185;-80
2022/12/17 17:59:27;;;;;;;25.15;16.05;;;-0.90;99.90;;;;;;4994242;28;20189;-81
2022/12/17 18:02:13;;;;;;;20.25;13.95;;;-1.00;99.90;;;;;;4988888;28;21040;-80
2022/12/17 18:04:59;;;;;;;22.90;16.10;;;-1.00;99.90;;;;;;5008718;28;20283;-80
2022/12/17 18:07:46;;;;;;;19.45;13.20;;;-1.10;99.90;;;;;;5009328;28;20201;-80
2022/12/17 18:10:32;;;;;;;19.67;13.35;;;-1.00;99.90;;;;;;4995701;28;20202;-80
2022/12/17 18:16:27;;;;;;;24.85;14.35;;;-1.10;99.90;;;;;;4995634;28;20193;-79
2022/12/17 18:19:14;;;;;;;25.10;16.15;;;-1.10;99.90;;;;;;5001140;28;20174;-80
2022/12/17 18:22:06;;;;;;;23.42;15.75;;;-1.10;99.90;;;;;;4994576;28;20182;-80
2022/12/17 18:24:52;;;;;;;24.85;17.67;;;-1.10;99.90;;;;;;5015313;28;20283;-81
2022/12/17 18:27:38;;;;;;;22.13;15.82;;;-1.10;99.90;;;;;;5009617;28;20762;-80
2022/12/17 18:30:24;;;;;;;24.27;16.13;;;-1.10;99.90;;;;;;5009688;28;20206;-79
2022/12/17 18:33:10;;;;;;;22.25;14.00;;;-1.10;99.90;;;;;;4996143;28;20171;-79
2022/12/17 18:35:57;;;;;;;20.10;11.85;;;-1.10;99.90;;;;;;4995677;28;20174;-80
2022/12/17 18:38:43;;;;;;;15.57;11.10;;;-1.00;99.90;;;;;;5010373;28;20185;-80
2022/12/17 18:44:41;;;;;;;21.23;14.38;;;-1.00;99.90;;;;;;4994371;28;20214;-80
2022/12/17 18:47:27;;;;;;;19.35;13.23;;;-1.00;99.90;;;;;;4993901;28;20190;-80
2022/12/17 18:50:13;;;;;;;20.67;13.90;;;-1.00;99.90;;;;;;4980934;28;20767;-80
2022/12/17 18:53:00;;;;;;;20.83;13.98;;;-1.10;99.90;;;;;;4980461;28;20175;-79
2022/12/17 18:55:47;;;;;;;17.85;12.48;;;-1.10;99.90;;;;;;4993461;28;20253;-80
2022/12/17 18:58:33;;;;;;;18.00;13.35;;;-1.10;99.90;;;;;;5008137;28;20185;-80
2022/12/17 19:01:27;;;;;;;22.83;15.55;;;-1.10;99.90;;;;;;5006363;28;20213;-80
2022/12/17 19:04:15;;;;;;;22.77;14.90;;;-1.10;99.90;;;;;;5008216;28;20217;-80
2022/12/17 19:07:01;;;;;;;23.92;15.65;;;-1.20;99.90;;;;;;5015727;28;20765;-81
2022/12/17 19:09:47;;;;;;;21.08;14.13;;;-1.20;99.90;;;;;;5006735;28;20190;-80
2022/12/17 19:12:33;;;;;;;24.98;16.30;;;-1.30;99.90;;;;;;5009508;28;20290;-80
2022/12/17 19:15:19;;;;;;;27.30;17.95;;;-1.20;99.90;;;;;;4986664;28;21267;-80
2022/12/17 19:18:06;;;;;;;25.27;16.55;;;-1.30;99.90;;;;;;5006947;28;20185;-80
2022/12/17 19:20:56;;;;;;;23.33;14.98;;;-1.30;99.90;;;;;;5007369;28;20647;-80
2022/12/17 19:23:42;;;;;;;29.88;15.50;;;-1.30;99.90;;;;;;5006838;28;20304;-80
2022/12/17 19:26:29;;;;;;;19.50;13.10;;;-1.30;99.90;;;;;;4987726;28;20185;-80
2022/12/17 19:29:22;;;;;;;30.63;16.67;;;-1.30;99.90;;;;;;5008850;28;20178;-80
2022/12/17 19:32:08;;;;;;;20.90;13.93;;;-1.30;99.90;;;;;;4993736;28;20257;-80
2022/12/17 19:34:54;;;;;;;22.45;13.82;;;-1.30;99.90;;;;;;5007866;28;20196;-80
2022/12/17 19:37:40;;;;;;;19.65;12.77;;;-1.30;99.90;;;;;;4994477;28;20170;-79
2022/12/17 19:40:27;;;;;;;21.30;14.35;;;-1.30;99.90;;;;;;4999550;28;20209;-82
2022/12/17 19:43:12;;;;;;;22.42;14.20;;;-1.30;99.90;;;;;;5012079;28;20182;-81
2022/12/17 19:46:07;;;;;;;21.85;13.30;;;-1.30;99.90;;;;;;4995225;28;20204;-82
2022/12/17 19:48:53;;;;;;;22.65;15.52;;;-1.30;99.90;;;;;;5015814;28;20174;-81
2022/12/17 19:51:42;;;;;;;22.30;13.93;;;-1.30;99.90;;;;;;5005630;28;20273;-81
2022/12/17 19:54:28;;;;;;;22.45;12.85;;;-1.30;99.90;;;;;;5011224;28;20253;-84
2022/12/17 19:57:14;;;;;;;28.33;15.15;;;-1.30;99.90;;;;;;4993283;28;20213;-81
2022/12/17 20:00:01;;;;;;;24.75;15.07;;;-1.30;99.90;;;;;;4991941;28;20202;-80
2022/12/17 20:02:47;;;;;;;19.80;12.80;;;-1.30;99.90;;;;;;4991448;28;20183;-81
2022/12/17 20:05:33;;;;;;;21.23;12.95;;;-1.30;99.90;;;;;;4991007;28;20198;-81
2022/12/17 20:08:19;;;;;;;22.30;16.38;;;-1.40;99.90;;;;;;4997650;28;20202;-82
2022/12/17 20:11:31;;;;;;;25.50;17.27;;;-1.40;99.90;;;;;;4999494;28;20197;-82
2022/12/17 20:14:17;;;;;;;17.85;13.43;;;-1.40;99.90;;;;;;4996036;28;20572;-81
2022/12/17 20:16:45;;;;;;;18.17;11.45;;;-1.40;99.90;;;;;;4995348;28;20205;-80
2022/12/17 20:19:14;;;;;;;24.50;17.92;;;-1.40;99.90;;;;;;4978242;28;20228;-81
2022/12/17 20:21:43;;;;;;;28.45;18.05;;;-1.40;99.90;;;;;;4987497;28;20201;-80
2022/12/17 20:24:10;;;;;;;23.20;13.18;;;-1.50;99.90;;;;;;5003691;28;20585;-80
2022/12/17 20:26:37;;;;;;;23.60;14.10;;;-1.50;99.90;;;;;;4975549;28;20523;-80
2022/12/17 20:29:04;;;;;;;25.75;14.63;;;-1.50;99.90;;;;;;4960675;28;20182;-81
2022/12/17 20:31:31;;;;;;;23.67;15.15;;;-1.50;99.90;;;;;;4988345;28;20727;-81
2022/12/17 20:34:00;;;;;;;22.35;15.32;;;-1.50;99.90;;;;;;4981520;28;20182;-79
2022/12/17 20:36:29;;;;;;;26.00;17.00;;;-1.50;99.90;;;;;;5015283;28;20174;-79
2022/12/17 20:38:55;;;;;;;23.02;16.10;;;-1.50;99.90;;;;;;4978798;28;20261;-81
2022/12/17 20:41:27;;;;;;;21.17;14.75;;;-1.50;99.90;;;;;;4979774;28;20237;-82
2022/12/17 20:43:54;;;;;;;20.85;14.00;;;-1.40;99.90;;;;;;5013606;28;20178;-82
2022/12/17 20:46:21;;;;;;;21.10;14.55;;;-1.40;99.90;;;;;;4981791;28;20616;-82
2022/12/17 20:48:48;;;;;;;22.90;16.52;;;-1.40;99.90;;;;;;4974753;28;20175;-81
2022/12/17 20:51:22;;;;;;;21.67;12.60;;;-1.40;99.90;;;;;;5003522;28;20229;-83
2022/12/17 20:53:49;;;;;;;18.33;12.23;;;-1.40;99.90;;;;;;5015719;28;20178;-84
2022/12/17 20:56:17;;;;;;;20.42;14.13;;;-1.30;99.90;;;;;;5001537;28;20201;-83
2022/12/17 20:58:44;;;;;;;22.42;13.60;;;-1.30;99.90;;;;;;4984983;28;20182;-82
2022/12/17 21:01:12;;;;;;;18.15;11.98;;;-1.30;99.90;;;;;;4999869;28;20220;-84
2022/12/17 21:03:39;;;;;;;18.33;14.10;;;-1.30;99.90;;;;;;5003971;28;20170;-83
2022/12/17 21:06:13;;;;;;;18.17;11.52;;;-1.30;99.90;;;;;;4999431;28;20213;-82
2022/12/17 21:08:41;;;;;;;22.50;15.00;;;-1.30;99.90;;;;;;5001664;28;20182;-83
2022/12/17 21:11:10;;;;;;;21.15;14.32;;;-1.40;99.90;;;;;;4999113;28;20202;-83
2022/12/17 21:13:36;;;;;;;21.45;14.00;;;-1.40;99.90;;;;;;4994645;28;20191;-77
2022/12/17 21:16:10;;;;;;;21.58;14.30;;;-1.40;99.90;;;;;;4991461;28;20182;-77
2022/12/17 21:18:36;;;;;;;19.98;13.27;;;-1.40;99.90;;;;;;5008310;28;20233;-76
2022/12/17 21:21:12;;;;;;;21.73;12.17;;;-1.40;99.90;;;;;;4990719;28;20611;-76
2022/12/17 21:23:39;;;;;;;21.90;12.80;;;-1.50;99.90;;;;;;5006641;28;20569;-76
2022/12/17 21:26:07;;;;;;;20.40;13.07;;;-1.50;99.90;;;;;;5008006;28;20198;-76
2022/12/17 21:28:34;;;;;;;16.40;12.15;;;-1.40;99.90;;;;;;4991761;28;20181;-76
2022/12/17 21:31:01;;;;;;;20.05;15.38;;;-1.50;99.90;;;;;;4990430;28;20277;-76
2022/12/17 21:33:29;;;;;;;19.13;12.65;;;-1.50;99.90;;;;;;4966062;28;20167;-77
2022/12/17 21:36:04;;;;;;;16.90;11.80;;;-1.50;99.90;;;;;;4975405;28;20174;-77
2022/12/17 21:38:31;;;;;;;19.50;10.93;;;-1.50;99.90;;;;;;4990856;28;20185;-77
2022/12/17 21:41:14;;;;;;;11.05;8.13;;;-1.50;99.90;;;;;;4990963;28;20710;-77
2022/12/17 21:43:41;;;;;;;12.25;8.63;;;-1.50;99.90;;;;;;4991433;28;20269;-81
2022/12/17 21:46:08;;;;;;;12.68;7.75;;;-1.50;99.90;;;;;;4976850;28;20228;-82
2022/12/17 21:48:37;;;;;;;22.58;12.57;;;-1.50;99.90;;;;;;4996072;28;20173;-81
2022/12/17 21:51:05;;;;;;;16.50;10.30;;;-1.50;99.90;;;;;;4995232;28;20201;-81
2022/12/17 21:53:30;;;;;;;18.00;11.45;;;-1.50;99.90;;;;;;4995622;28;20190;-81
2022/12/17 21:56:12;;;;;;;15.55;11.30;;;-1.50;99.90;;;;;;5013273;28;20174;-79
2022/12/17 21:58:39;;;;;;;16.52;9.75;;;-1.50;99.90;;;;;;4995225;28;20174;-80
2022/12/17 22:01:13;;;;;;;13.05;10.38;;;-1.50;99.90;;;;;;4994504;28;20217;-81
2022/12/17 22:03:39;;;;;;;15.57;10.18;;;-1.50;99.90;;;;;;4995072;28;20185;-81
2022/12/17 22:06:13;;;;;;;16.37;9.60;;;-1.50;99.90;;;;;;5012312;28;20171;-80
2022/12/17 22:08:39;;;;;;;17.02;10.52;;;-1.50;99.90;;;;;;4978195;28;20577;-81
2022/12/17 22:11:14;;;;;;;19.33;11.13;;;-1.50;99.90;;;;;;4994898;28;20293;-80
2022/12/17 22:16:31;;;;;;;16.48;10.95;;;-1.60;99.90;;;;;;4994832;28;20288;-81
2022/12/17 22:18:58;;;;;;;20.30;11.70;;;-1.70;99.90;;;;;;4978665;28;20171;-81
2022/12/17 22:21:24;;;;;;;19.50;12.60;;;-1.70;99.90;;;;;;4977444;28;20210;-80
2022/12/17 22:23:50;;;;;;;15.30;11.00;;;-1.70;99.90;;;;;;4994945;28;20228;-81
2022/12/17 22:26:17;;;;;;;13.67;10.07;;;-1.70;99.90;;;;;;5012476;28;20167;-81
2022/12/17 22:28:48;;;;;;;16.55;11.38;;;-1.70;99.90;;;;;;4995391;28;20589;-80
2022/12/17 22:34:05;;;;;;;13.63;9.43;;;-1.70;99.90;;;;;;5011985;28;20248;-81
2022/12/17 22:36:32;;;;;;;17.20;11.05;;;-1.70;99.90;;;;;;4993567;28;20179;-81
2022/12/17 22:39:04;;;;;;;15.82;11.18;;;-1.70;99.90;;;;;;4993919;28;20174;-81
2022/12/17 22:44:14;;;;;;;14.88;9.25;;;-1.80;99.90;;;;;;4994076;28;20293;-82
2022/12/17 22:46:40;;;;;;;17.47;10.50;;;-1.80;99.90;;;;;;4976336;28;20281;-81
2022/12/17 22:49:06;;;;;;;17.15;10.25;;;-1.70;99.90;;;;;;5010001;28;20573;-81
2022/12/17 22:51:32;;;;;;;12.35;8.15;;;-1.70;99.90;;;;;;5010469;28;20597;-81
2022/12/17 22:54:06;;;;;;;19.67;12.03;;;-1.70;99.90;;;;;;5010033;28;20193;-81
2022/12/17 22:56:33;;;;;;;19.55;12.75;;;-1.80;99.90;;;;;;5009736;28;20669;-81
2022/12/17 22:58:59;;;;;;;17.63;10.85;;;-1.80;99.90;;;;;;5008838;28;20261;-81
2022/12/17 23:01:25;;;;;;;16.50;11.67;;;-1.80;99.90;;;;;;5008709;28;20301;-80
2022/12/17 23:03:55;;;;;;;16.65;9.35;;;-1.80;99.90;;;;;;4993142;28;21126;-81
2022/12/17 23:06:22;;;;;;;12.07;9.60;;;-1.80;99.90;;;;;;5009689;28;20205;-81
2022/12/17 23:08:47;;;;;;;14.98;10.38;;;-1.70;99.90;;;;;;5011025;28;20639;-80
2022/12/17 23:11:23;;;;;;;15.10;10.70;;;-1.70;99.90;;;;;;4976522;28;20248;-81
2022/12/17 23:13:49;;;;;;;18.02;11.40;;;-1.70;99.90;;;;;;5009320;28;20577;-81
2022/12/17 23:16:15;;;;;;;14.77;9.60;;;-1.70;99.90;;;;;;5009629;28;20638;-80
2022/12/17 23:18:42;;;;;;;16.33;10.03;;;-1.70;99.90;;;;;;4992717;28;20171;-81
2022/12/17 23:21:20;;;;;;;15.32;10.30;;;-1.70;99.90;;;;;;4992144;28;20617;-80
2022/12/17 23:23:46;;;;;;;19.23;10.23;;;-1.70;99.90;;;;;;5010253;28;20209;-79
2022/12/17 23:26:19;;;;;;;15.60;10.63;;;-1.70;99.90;;;;;;4993136;28;20638;-79
2022/12/17 23:28:45;;;;;;;13.23;9.15;;;-1.80;99.90;;;;;;5009164;28;20688;-79
2022/12/17 23:31:17;;;;;;;13.77;9.50;;;-1.70;99.90;;;;;;4959899;28;20190;-78
2022/12/17 23:33:43;;;;;;;14.40;9.75;;;-1.80;99.90;;;;;;4992308;28;20262;-79
2022/12/17 23:36:15;;;;;;;13.15;8.55;;;-1.80;99.90;;;;;;4976632;28;20228;-78
2022/12/17 23:38:41;;;;;;;17.75;10.07;;;-1.80;99.90;;;;;;5008963;28;20173;-78
2022/12/17 23:41:10;;;;;;;16.42;11.27;;;-1.80;99.90;;;;;;5009605;28;20197;-79
2022/12/17 23:43:36;;;;;;;18.40;11.38;;;-1.80;99.90;;;;;;4976191;28;20526;-79
2022/12/17 23:46:02;;;;;;;14.93;9.60;;;-1.80;99.90;;;;;;5008895;28;20344;-79
2022/12/17 23:48:33;;;;;;;12.23;8.25;;;-1.90;99.90;;;;;;4992592;28;20254;-79
2022/12/17 23:50:59;;;;;;;13.25;9.60;;;-1.80;99.90;;;;;;5009409;28;20265;-79
2022/12/17 23:53:26;;;;;;;15.88;9.77;;;-1.80;99.90;;;;;;4992385;28;20177;-79
2022/12/17 23:55:52;;;;;;;16.42;8.68;;;-1.90;99.90;;;;;;4992306;28;20202;-79
2022/12/17 23:58:18;;;;;;;17.30;11.40;;;-1.90;99.90;;;;;;4976267;28;20178;-79
